Time;durP1;ratioP1;P1;durP2;ratioP2;P2;SDS_P1;SDS_P2;PMS_P1;PMS_P2;Temp;Humidity;BMP_temperature;BMP_pressure;BME280_temperature;BME280_humidity;BME280_pressure;Samples;Min_cycle;Max_cycle;Signal;HPM_P1;HPM_P2
2022/10/05 00:00:59;;;;;;;9.90;6.25;;;15.00;99.90;;;;;;5017071;28;20374;-71
2022/10/05 00:03:29;;;;;;;11.43;6.75;;;15.00;99.90;;;;;;5016893;28;20057;-73
2022/10/05 00:05:55;;;;;;;10.40;6.72;;;15.00;99.90;;;;;;5016659;28;20401;-72
2022/10/05 00:08:24;;;;;;;12.75;6.38;;;15.00;99.90;;;;;;4996031;28;20050;-73
2022/10/05 00:10:50;;;;;;;15.25;6.68;;;14.90;99.90;;;;;;4996055;28;20363;-71
2022/10/05 00:13:25;;;;;;;10.95;6.78;;;15.00;99.90;;;;;;5009205;28;20526;-72
2022/10/05 00:16:02;;;;;;;11.73;6.75;;;15.00;99.90;;;;;;5016223;28;20046;-71
2022/10/05 00:18:28;;;;;;;8.73;5.60;;;14.90;99.90;;;;;;5016253;28;20077;-74
2022/10/05 00:20:54;;;;;;;11.13;6.82;;;15.00;99.90;;;;;;5015939;28;20084;-72
2022/10/05 00:23:24;;;;;;;9.52;6.32;;;15.00;99.90;;;;;;5016753;28;20042;-72
2022/10/05 00:25:50;;;;;;;13.80;7.47;;;14.90;99.90;;;;;;5016223;28;20042;-71
2022/10/05 00:28:28;;;;;;;10.32;5.85;;;14.90;99.90;;;;;;5016047;28;20438;-74
2022/10/05 00:30:56;;;;;;;10.75;7.25;;;14.90;99.90;;;;;;5015958;28;20482;-71
2022/10/05 00:33:21;;;;;;;9.00;6.25;;;15.00;99.90;;;;;;5016148;28;20060;-72
2022/10/05 00:35:47;;;;;;;11.60;5.63;;;14.90;99.90;;;;;;5015933;28;20458;-72
2022/10/05 00:38:13;;;;;;;8.90;5.85;;;14.90;99.90;;;;;;5015874;28;20348;-72
2022/10/05 00:41:04;;;;;;;8.60;5.32;;;14.80;99.90;;;;;;5015736;28;20057;-71
2022/10/05 00:43:57;;;;;;;10.85;6.20;;;14.90;99.90;;;;;;5016482;28;20061;-73
2022/10/05 00:46:36;;;;;;;9.40;6.43;;;14.90;99.90;;;;;;5015603;28;20386;-71
2022/10/05 00:49:21;;;;;;;8.45;5.20;;;14.90;99.90;;;;;;5016190;28;20063;-71
2022/10/05 00:52:03;;;;;;;10.40;6.20;;;14.90;99.90;;;;;;5016101;28;20068;-71
2022/10/05 00:54:41;;;;;;;8.70;5.28;;;14.90;99.90;;;;;;5015274;28;20042;-72
2022/10/05 00:57:21;;;;;;;10.77;5.93;;;14.90;99.90;;;;;;5015695;28;20082;-72
2022/10/05 01:00:06;;;;;;;7.63;5.25;;;14.90;99.90;;;;;;5015710;28;20057;-71
2022/10/05 01:03:00;;;;;;;6.57;4.65;;;14.90;99.90;;;;;;5015494;28;20049;-70
2022/10/05 01:05:31;;;;;;;7.15;5.00;;;14.80;99.90;;;;;;5015532;28;20053;-72
2022/10/05 01:08:02;;;;;;;7.43;5.28;;;14.80;99.90;;;;;;5016035;28;20058;-71
2022/10/05 01:10:51;;;;;;;11.45;4.85;;;14.80;99.90;;;;;;5015674;28;20068;-71
2022/10/05 01:13:32;;;;;;;9.13;4.95;;;14.80;99.90;;;;;;5015440;28;20382;-72
2022/10/05 01:16:31;;;;;;;9.35;5.30;;;14.80;99.90;;;;;;5015183;28;20038;-70
2022/10/05 01:19:20;;;;;;;7.15;4.63;;;14.80;99.90;;;;;;4995110;28;20051;-71
2022/10/05 01:21:56;;;;;;;12.68;5.65;;;14.70;99.90;;;;;;5010656;28;20582;-72
2022/10/05 01:24:38;;;;;;;8.88;4.55;;;14.80;99.90;;;;;;5014961;28;20046;-72
2022/10/05 01:27:15;;;;;;;8.63;5.32;;;14.70;99.90;;;;;;4994364;28;20046;-71
2022/10/05 01:30:00;;;;;;;8.35;5.18;;;14.60;99.90;;;;;;4994486;28;20085;-71
2022/10/05 01:32:54;;;;;;;7.75;4.68;;;14.70;99.90;;;;;;4995368;28;20053;-72
2022/10/05 01:35:35;;;;;;;7.72;4.68;;;14.60;99.90;;;;;;5014243;28;20525;-72
2022/10/05 01:38:38;;;;;;;7.32;4.90;;;14.70;99.90;;;;;;5014923;28;20045;-71
2022/10/05 01:41:06;;;;;;;13.35;5.45;;;14.60;99.90;;;;;;5014975;28;20076;-72
2022/10/05 01:43:49;;;;;;;8.20;5.40;;;14.50;99.90;;;;;;5014624;28;20054;-74
2022/10/05 01:46:39;;;;;;;7.85;4.90;;;14.60;99.90;;;;;;5014491;28;20060;-71
2022/10/05 01:49:12;;;;;;;6.50;4.80;;;14.60;99.90;;;;;;5015156;28;20119;-72
2022/10/05 01:52:01;;;;;;;8.23;5.07;;;14.60;99.90;;;;;;5014996;28;20401;-71
2022/10/05 01:54:46;;;;;;;9.48;5.28;;;14.60;99.90;;;;;;5014830;28;20038;-71
2022/10/05 01:57:26;;;;;;;8.30;5.20;;;14.60;99.90;;;;;;5015419;28;20050;-71
2022/10/05 02:00:09;;;;;;;7.38;5.10;;;14.70;99.90;;;;;;5015242;28;20120;-72
2022/10/05 02:02:44;;;;;;;9.43;4.90;;;14.70;99.90;;;;;;5014548;28;20046;-73
2022/10/05 02:05:17;;;;;;;9.70;6.07;;;14.60;99.90;;;;;;5014576;28;20064;-71
2022/10/05 02:08:13;;;;;;;9.95;6.20;;;14.60;99.90;;;;;;5014866;28;20038;-73
2022/10/05 02:10:45;;;;;;;7.32;4.97;;;14.60;99.90;;;;;;5014711;28;20057;-72
2022/10/05 02:13:25;;;;;;;10.85;5.35;;;14.60;99.90;;;;;;5014664;28;20057;-70
2022/10/05 02:15:57;;;;;;;10.50;5.60;;;14.70;99.90;;;;;;5014496;28;20056;-71
2022/10/05 02:18:28;;;;;;;7.45;4.80;;;14.60;99.90;;;;;;5014627;28;20121;-71
2022/10/05 02:20:55;;;;;;;9.68;5.78;;;14.50;99.90;;;;;;5014720;28;20109;-71
2022/10/05 02:23:26;;;;;;;9.18;5.80;;;14.60;99.90;;;;;;5014413;28;20077;-72
2022/10/05 02:25:54;;;;;;;8.07;5.30;;;14.70;99.90;;;;;;5014577;28;20099;-72
2022/10/05 02:28:44;;;;;;;9.13;5.55;;;14.70;99.90;;;;;;5014541;28;20050;-72
2022/10/05 02:31:21;;;;;;;10.02;6.07;;;14.60;99.90;;;;;;5015097;28;20104;-71
2022/10/05 02:33:47;;;;;;;9.15;5.68;;;14.60;99.90;;;;;;5013865;28;20112;-72
2022/10/05 02:36:14;;;;;;;9.43;5.57;;;14.60;99.90;;;;;;5014850;28;20058;-73
2022/10/05 02:38:49;;;;;;;12.05;6.28;;;14.60;99.90;;;;;;4989341;28;20467;-70
2022/10/05 02:41:48;;;;;;;10.00;6.07;;;14.60;99.90;;;;;;4992579;28;20057;-72
2022/10/05 02:44:33;;;;;;;9.30;5.93;;;14.60;99.90;;;;;;4983399;28;20112;-70
2022/10/05 02:47:11;;;;;;;10.73;5.97;;;14.50;99.90;;;;;;5014531;28;20045;-71
2022/10/05 02:49:57;;;;;;;13.45;6.72;;;14.60;99.90;;;;;;4993651;28;20474;-72
2022/10/05 02:52:52;;;;;;;13.65;7.25;;;14.60;99.90;;;;;;5008315;28;20112;-71
2022/10/05 02:55:27;;;;;;;9.80;6.10;;;14.60;99.90;;;;;;5014312;28;20442;-72
2022/10/05 02:58:19;;;;;;;9.13;6.03;;;14.60;99.90;;;;;;5017910;28;20046;-73
2022/10/05 03:00:53;;;;;;;9.30;6.43;;;14.60;99.90;;;;;;5017055;28;20049;-72
2022/10/05 03:03:25;;;;;;;8.05;6.28;;;14.60;99.90;;;;;;4996920;28;20046;-72
2022/10/05 03:06:00;;;;;;;12.50;6.40;;;14.60;99.90;;;;;;5016253;28;20394;-71
2022/10/05 03:08:34;;;;;;;9.75;6.38;;;14.60;99.90;;;;;;5018050;28;20069;-73
2022/10/05 03:11:09;;;;;;;11.10;6.72;;;14.60;99.90;;;;;;5017777;28;20130;-71
2022/10/05 03:13:53;;;;;;;7.60;5.53;;;14.60;99.90;;;;;;4998881;28;20116;-71
2022/10/05 03:16:42;;;;;;;9.73;6.10;;;14.60;99.90;;;;;;5017364;28;20045;-71
2022/10/05 03:19:25;;;;;;;8.65;6.25;;;14.60;99.90;;;;;;4997238;28;20057;-71
2022/10/05 03:21:54;;;;;;;9.48;6.32;;;14.70;99.90;;;;;;5013851;28;20057;-73
2022/10/05 03:24:52;;;;;;;10.63;6.00;;;14.70;99.90;;;;;;5017725;28;20053;-70
2022/10/05 03:27:50;;;;;;;9.75;6.20;;;14.60;99.90;;;;;;5017358;28;20061;-70
2022/10/05 03:30:22;;;;;;;11.35;6.80;;;14.70;99.90;;;;;;5017045;28;20477;-71
2022/10/05 03:32:56;;;;;;;9.80;5.63;;;14.60;99.90;;;;;;5016743;28;20046;-70
2022/10/05 03:35:37;;;;;;;12.38;6.80;;;14.60;99.90;;;;;;5016861;28;20466;-72
2022/10/05 03:38:10;;;;;;;10.95;5.90;;;14.60;99.90;;;;;;5017034;28;20041;-73
2022/10/05 03:41:00;;;;;;;8.80;5.32;;;14.60;99.90;;;;;;5017057;28;20112;-72
2022/10/05 03:43:57;;;;;;;16.35;6.22;;;14.60;99.90;;;;;;5016453;28;20046;-72
2022/10/05 03:46:46;;;;;;;7.65;5.82;;;14.60;99.90;;;;;;5015014;28;20120;-73
2022/10/05 03:49:32;;;;;;;9.52;5.75;;;14.60;99.90;;;;;;5017327;28;20042;-71
2022/10/05 03:52:13;;;;;;;9.60;5.93;;;14.60;99.90;;;;;;5016515;28;20093;-71
2022/10/05 03:54:46;;;;;;;13.07;6.57;;;14.60;99.90;;;;;;5016906;28;20046;-73
2022/10/05 03:57:22;;;;;;;11.70;5.90;;;14.60;99.90;;;;;;5017111;28;20042;-72
2022/10/05 04:00:11;;;;;;;11.50;6.28;;;14.60;99.90;;;;;;5017384;28;20042;-72
2022/10/05 04:03:30;;;;;;;8.18;5.47;;;14.60;99.90;;;;;;5016792;28;20033;-71
2022/10/05 04:06:13;;;;;;;10.30;5.60;;;14.60;99.90;;;;;;4978627;28;20046;-72
2022/10/05 04:08:48;;;;;;;10.02;5.97;;;14.60;99.90;;;;;;4979240;28;20379;-72
2022/10/05 04:11:20;;;;;;;14.73;6.68;;;14.60;99.90;;;;;;5006778;28;20048;-72
2022/10/05 04:13:56;;;;;;;7.63;6.13;;;14.60;99.90;;;;;;5016631;28;20081;-73
2022/10/05 04:16:26;;;;;;;10.68;6.15;;;14.60;99.90;;;;;;5016522;28;20046;-73
2022/10/05 04:18:58;;;;;;;9.15;6.30;;;14.60;99.90;;;;;;4999911;28;20058;-73
2022/10/05 04:21:31;;;;;;;10.18;6.22;;;14.60;99.90;;;;;;5016485;28;20449;-72
2022/10/05 04:24:08;;;;;;;10.50;6.00;;;14.60;99.90;;;;;;5016464;28;20073;-72
2022/10/05 04:26:39;;;;;;;11.35;7.18;;;14.60;99.90;;;;;;5016518;28;20053;-72
2022/10/05 04:29:29;;;;;;;9.63;5.72;;;14.50;99.90;;;;;;5016506;28;20050;-73
2022/10/05 04:32:31;;;;;;;10.50;6.22;;;14.60;99.90;;;;;;5016449;28;20077;-74
2022/10/05 04:35:14;;;;;;;8.93;5.70;;;14.60;99.90;;;;;;5016279;28;20045;-73
2022/10/05 04:37:58;;;;;;;;;;;14.60;99.90;;;;;;5016213;28;20061;-73
2022/10/05 04:40:24;;;;;;;7.90;5.80;;;14.60;99.90;;;;;;5016257;28;19921;-73
2022/10/05 04:43:15;;;;;;;13.77;6.22;;;14.50;99.90;;;;;;4998746;28;20060;-72
2022/10/05 04:45:56;;;;;;;13.48;7.00;;;14.60;99.90;;;;;;5016382;28;20061;-73
2022/10/05 04:48:43;;;;;;;8.38;6.10;;;14.50;99.90;;;;;;5015767;28;20346;-72
2022/10/05 04:51:35;;;;;;;9.57;6.10;;;14.60;99.90;;;;;;5016066;28;20406;-72
2022/10/05 04:54:08;;;;;;;8.25;6.78;;;14.50;99.90;;;;;;5016197;28;20089;-72
2022/10/05 04:56:40;;;;;;;9.82;6.43;;;14.50;99.90;;;;;;5015605;28;20454;-72
2022/10/05 04:59:43;;;;;;;11.32;5.97;;;14.50;99.90;;;;;;5015843;28;20057;-73
2022/10/05 05:02:11;;;;;;;10.75;6.35;;;14.50;99.90;;;;;;5016366;28;20042;-74
2022/10/05 05:04:47;;;;;;;11.18;6.72;;;14.60;99.90;;;;;;5015540;28;20045;-72
2022/10/05 05:07:13;;;;;;;10.23;6.70;;;14.50;99.90;;;;;;5013498;28;20092;-72
2022/10/05 05:09:58;;;;;;;10.18;7.40;;;14.50;99.90;;;;;;4998024;28;20086;-71
2022/10/05 05:12:35;;;;;;;9.52;6.65;;;14.50;99.90;;;;;;5015666;28;20046;-70
2022/10/05 05:15:26;;;;;;;10.70;6.80;;;14.60;99.90;;;;;;5015679;28;20410;-72
2022/10/05 05:17:58;;;;;;;9.52;6.85;;;14.50;99.90;;;;;;5015524;28;20128;-72
2022/10/05 05:20:49;;;;;;;11.52;6.72;;;14.60;99.90;;;;;;5013659;28;20053;-73
2022/10/05 05:23:41;;;;;;;8.57;6.25;;;14.50;99.90;;;;;;5015097;28;20197;-73
2022/10/05 05:26:13;;;;;;;14.07;6.75;;;14.50;99.90;;;;;;5015304;28;20045;-71
2022/10/05 05:28:53;;;;;;;12.02;6.60;;;14.50;99.90;;;;;;5015557;28;20050;-73
2022/10/05 05:31:35;;;;;;;11.30;7.15;;;14.50;99.90;;;;;;5015676;28;20124;-72
2022/10/05 05:34:26;;;;;;;9.55;6.35;;;14.50;99.90;;;;;;5015128;28;20034;-73
2022/10/05 05:37:10;;;;;;;9.57;6.72;;;14.60;99.90;;;;;;5015319;28;20034;-71
2022/10/05 05:40:04;;;;;;;9.75;6.53;;;14.50;99.90;;;;;;5015471;28;20046;-72
2022/10/05 05:42:36;;;;;;;;;;;14.60;99.90;;;;;;5015905;28;20057;-72
2022/10/05 05:45:15;;;;;;;15.10;5.97;;;14.50;99.90;;;;;;4982259;28;19933;-72
2022/10/05 05:47:50;;;;;;;9.68;6.05;;;14.50;99.90;;;;;;5015820;28;20053;-72
2022/10/05 05:50:23;;;;;;;9.43;5.60;;;14.50;99.90;;;;;;4994507;28;20439;-72
2022/10/05 05:52:54;;;;;;;7.43;4.97;;;14.50;99.90;;;;;;4995391;28;20081;-74
2022/10/05 05:55:26;;;;;;;11.20;5.75;;;14.50;99.90;;;;;;4995491;28;20051;-72
2022/10/05 05:57:56;;;;;;;10.27;6.03;;;14.50;99.90;;;;;;4978261;28;20042;-72
2022/10/05 06:00:40;;;;;;;9.38;5.55;;;14.60;99.90;;;;;;4995722;28;20105;-72
2022/10/05 06:03:17;;;;;;;10.32;5.45;;;14.50;99.90;;;;;;4997175;28;20046;-71
2022/10/05 06:05:48;;;;;;;10.82;6.53;;;14.50;99.90;;;;;;5014687;28;20398;-72
2022/10/05 06:08:42;;;;;;;8.40;5.60;;;14.60;99.90;;;;;;5015020;28;20046;-73
2022/10/05 06:11:44;;;;;;;12.18;5.80;;;14.50;99.90;;;;;;5015324;28;20060;-72
2022/10/05 06:14:27;;;;;;;13.07;7.28;;;14.50;99.90;;;;;;5014951;28;20053;-71
2022/10/05 06:17:31;;;;;;;10.25;6.40;;;14.60;99.90;;;;;;5014850;28;20082;-73
2022/10/05 06:19:59;;;;;;;8.30;5.47;;;14.60;99.90;;;;;;5011188;28;20049;-71
2022/10/05 06:22:36;;;;;;;9.50;5.40;;;14.60;99.90;;;;;;5014860;28;20050;-72
2022/10/05 06:25:01;;;;;;;7.82;5.95;;;14.60;99.90;;;;;;5014948;28;20061;-74
2022/10/05 06:27:37;;;;;;;8.90;5.50;;;14.60;99.90;;;;;;4997881;28;20042;-71
2022/10/05 06:30:10;;;;;;;11.15;6.35;;;14.50;99.90;;;;;;5014958;28;20111;-72
2022/10/05 06:33:12;;;;;;;9.68;5.43;;;14.60;99.90;;;;;;5019089;28;20054;-72
2022/10/05 06:35:52;;;;;;;9.55;5.80;;;14.70;99.90;;;;;;5018512;28;20050;-71
2022/10/05 06:38:32;;;;;;;9.90;6.38;;;14.80;99.90;;;;;;5018612;28;20137;-71
2022/10/05 06:41:13;;;;;;;9.98;5.80;;;14.70;99.90;;;;;;5018294;28;20100;-72
2022/10/05 06:43:55;;;;;;;9.30;5.57;;;14.70;99.90;;;;;;5018692;28;20054;-71
2022/10/05 06:46:39;;;;;;;8.52;5.68;;;14.70;99.90;;;;;;5018625;28;20163;-73
2022/10/05 06:49:24;;;;;;;9.77;6.60;;;14.70;99.90;;;;;;5018669;28;20042;-73
2022/10/05 06:52:11;;;;;;;9.82;6.13;;;14.80;99.90;;;;;;5018079;28;20041;-73
2022/10/05 06:54:52;;;;;;;12.27;7.10;;;14.80;99.90;;;;;;5018724;28;20058;-72
2022/10/05 06:57:48;;;;;;;8.18;5.88;;;14.80;99.90;;;;;;5018151;28;20191;-73
2022/10/05 07:00:23;;;;;;;9.60;5.68;;;14.80;99.90;;;;;;5018454;28;20339;-74
2022/10/05 07:02:55;;;;;;;9.65;6.38;;;14.80;99.90;;;;;;5018180;28;20046;-72
2022/10/05 07:05:38;;;;;;;8.52;5.50;;;14.80;99.90;;;;;;5018206;28;20065;-71
2022/10/05 07:08:12;;;;;;;11.85;6.93;;;14.80;99.90;;;;;;5018474;28;20046;-72
2022/10/05 07:10:49;;;;;;;9.57;6.28;;;14.80;99.90;;;;;;5018292;28;20050;-72
2022/10/05 07:13:33;;;;;;;8.07;5.22;;;14.80;99.90;;;;;;5018148;28;20065;-72
2022/10/05 07:16:20;;;;;;;9.93;5.53;;;14.80;99.90;;;;;;5018072;28;20120;-73
2022/10/05 07:19:09;;;;;;;11.75;6.15;;;14.80;99.90;;;;;;5018341;28;20477;-73
2022/10/05 07:21:47;;;;;;;8.43;5.03;;;14.80;99.90;;;;;;5017844;28;20085;-71
2022/10/05 07:24:41;;;;;;;8.50;5.20;;;14.90;99.90;;;;;;5018077;28;20054;-72
2022/10/05 07:27:15;;;;;;;7.40;5.15;;;14.90;99.90;;;;;;5018064;28;20147;-72
2022/10/05 07:29:51;;;;;;;9.82;5.95;;;14.90;99.90;;;;;;5017693;28;20081;-71
2022/10/05 07:32:44;;;;;;;6.80;4.75;;;15.00;99.90;;;;;;5017906;28;20061;-71
2022/10/05 07:38:24;;;;;;;7.00;4.30;;;15.00;99.90;;;;;;5018097;28;20313;-72
2022/10/05 07:41:03;;;;;;;8.07;4.70;;;15.00;99.90;;;;;;5017620;28;20378;-71
2022/10/05 07:43:29;;;;;;;5.97;4.22;;;15.00;99.90;;;;;;5016723;28;20057;-73
2022/10/05 07:46:12;;;;;;;9.63;4.85;;;14.90;99.90;;;;;;5017738;28;20056;-72
2022/10/05 07:48:49;;;;;;;6.38;4.40;;;15.00;99.90;;;;;;5017369;28;20053;-72
2022/10/05 07:51:26;;;;;;;6.88;3.80;;;15.00;99.90;;;;;;5016802;28;20123;-71
2022/10/05 07:54:20;;;;;;;4.68;3.40;;;15.00;99.90;;;;;;5017335;28;20050;-72
2022/10/05 07:57:23;;;;;;;7.40;4.28;;;15.00;99.90;;;;;;4999861;28;20057;-72
2022/10/05 07:59:53;;;;;;;5.30;3.15;;;15.00;99.90;;;;;;4999516;28;20049;-73
2022/10/05 08:02:43;;;;;;;4.60;3.10;;;15.10;99.90;;;;;;5017033;28;20125;-72
2022/10/05 08:05:12;;;;;;;5.18;3.45;;;15.20;99.90;;;;;;5016655;28;20041;-71
2022/10/05 08:07:39;;;;;;;7.75;3.58;;;15.20;99.90;;;;;;5017010;28;20121;-74
2022/10/05 08:10:28;;;;;;;8.35;3.10;;;15.30;99.90;;;;;;5017001;28;20121;-73
2022/10/05 08:13:06;;;;;;;4.95;2.92;;;15.40;99.90;;;;;;5016651;28;20100;-72
2022/10/05 08:15:43;;;;;;;4.38;3.00;;;15.40;99.90;;;;;;5000120;28;20049;-72
2022/10/05 08:18:21;;;;;;;7.28;3.33;;;15.50;99.90;;;;;;5016905;28;20050;-73
2022/10/05 08:20:53;;;;;;;5.20;3.50;;;15.60;99.90;;;;;;5016361;28;20061;-73
2022/10/05 08:23:42;;;;;;;4.30;2.93;;;15.70;99.90;;;;;;5016622;28;20057;-73
2022/10/05 08:26:27;;;;;;;6.47;3.40;;;15.70;99.90;;;;;;5016091;28;20144;-74
2022/10/05 08:29:09;;;;;;;8.73;4.57;;;15.70;99.90;;;;;;5016534;28;20472;-75
2022/10/05 08:31:37;;;;;;;9.25;4.47;;;15.70;99.90;;;;;;5016448;28;20081;-72
2022/10/05 08:34:18;;;;;;;8.10;5.10;;;15.80;99.90;;;;;;5016530;28;20395;-72
2022/10/05 08:37:05;;;;;;;5.22;3.85;;;15.80;99.90;;;;;;4998996;28;20057;-72
2022/10/05 08:39:50;;;;;;;7.28;4.85;;;15.90;99.90;;;;;;5016483;28;20053;-71
2022/10/05 08:42:40;;;;;;;6.30;4.22;;;16.00;99.90;;;;;;5016269;28;20061;-73
2022/10/05 08:45:21;;;;;;;9.00;4.65;;;16.20;99.90;;;;;;4998741;28;20133;-72
2022/10/05 08:48:17;;;;;;;5.63;3.90;;;16.40;99.90;;;;;;5016899;28;20134;-71
2022/10/05 08:51:01;;;;;;;7.03;4.70;;;16.50;99.90;;;;;;5015835;28;20121;-73
2022/10/05 08:54:01;;;;;;;5.30;4.00;;;16.70;99.90;;;;;;5015987;28;20046;-71
2022/10/05 08:56:36;;;;;;;7.43;4.10;;;16.90;99.90;;;;;;5015935;28;20054;-72
2022/10/05 08:59:28;;;;;;;6.93;3.80;;;17.00;99.90;;;;;;5016360;28;20347;-73
2022/10/05 09:02:48;;;;;;;6.82;3.72;;;17.10;99.90;;;;;;5016033;28;20465;-74
2022/10/05 09:05:23;;;;;;;4.65;3.53;;;17.10;99.90;;;;;;4975799;28;20141;-74
2022/10/05 09:08:13;;;;;;;10.02;4.22;;;17.20;99.90;;;;;;4998721;28;20053;-73
2022/10/05 09:10:56;;;;;;;8.05;4.30;;;17.30;99.90;;;;;;5015713;28;20460;-72
2022/10/05 09:13:40;;;;;;;7.50;4.17;;;17.30;99.90;;;;;;5016091;28;20399;-73
2022/10/05 09:16:30;;;;;;;6.22;3.65;;;17.30;99.90;;;;;;5015396;28;20137;-73
2022/10/05 09:19:15;;;;;;;5.95;4.35;;;17.40;99.90;;;;;;5015391;28;20042;-72
2022/10/05 09:21:44;;;;;;;5.93;4.05;;;17.40;99.90;;;;;;5015318;28;20056;-73
2022/10/05 09:24:13;;;;;;;6.43;3.55;;;17.40;99.90;;;;;;5015375;28;20038;-73
2022/10/05 09:27:03;;;;;;;6.10;3.67;;;17.40;99.90;;;;;;4998498;28;20050;-72
2022/10/05 09:29:31;;;;;;;5.80;3.80;;;17.50;99.90;;;;;;4998254;28;20092;-73
2022/10/05 09:32:04;;;;;;;7.07;3.67;;;17.60;99.90;;;;;;5015363;28;20050;-73
2022/10/05 09:34:48;;;;;;;5.10;3.63;;;17.70;99.90;;;;;;5015151;28;20050;-71
2022/10/05 09:37:28;;;;;;;6.70;3.97;;;17.70;99.90;;;;;;5015674;28;20077;-73
2022/10/05 09:40:16;;;;;;;9.60;3.83;;;17.80;99.90;;;;;;5015064;28;20041;-71
2022/10/05 09:43:17;;;;;;;6.68;3.53;;;17.80;99.90;;;;;;4997956;28;20054;-73
2022/10/05 09:46:23;;;;;;;5.78;3.33;;;17.70;99.90;;;;;;5015419;28;20046;-72
2022/10/05 09:49:18;;;;;;;4.35;3.15;;;17.80;99.90;;;;;;4997529;28;20046;-73
2022/10/05 09:52:21;;;;;;;5.65;2.97;;;17.90;99.90;;;;;;4995865;28;20042;-71
2022/10/05 09:55:18;;;;;;;5.63;3.15;;;17.80;99.90;;;;;;4978590;28;20054;-72
2022/10/05 09:58:17;;;;;;;4.93;2.85;;;17.80;99.90;;;;;;4995846;28;20050;-72
2022/10/05 10:01:01;;;;;;;4.93;2.88;;;17.90;99.90;;;;;;4995544;28;20061;-73
2022/10/05 10:03:52;;;;;;;10.68;2.38;;;17.90;99.90;;;;;;4995894;28;20046;-71
2022/10/05 10:06:48;;;;;;;6.18;2.95;;;17.90;99.90;;;;;;5000179;28;20050;-73
2022/10/05 10:09:56;;;;;;;5.07;2.97;;;17.80;99.90;;;;;;5001954;28;20057;-72
2022/10/05 10:12:40;;;;;;;4.00;2.60;;;17.80;99.90;;;;;;4984458;28;20062;-73
2022/10/05 10:15:17;;;;;;;4.07;2.30;;;17.80;99.90;;;;;;4985062;28;20447;-72
2022/10/05 10:18:19;;;;;;;5.68;2.70;;;17.80;99.90;;;;;;5001220;28;20134;-73
2022/10/05 10:21:16;;;;;;;7.72;2.53;;;17.80;99.90;;;;;;5020132;28;20060;-72
2022/10/05 10:24:13;;;;;;;4.82;2.65;;;17.80;99.90;;;;;;5021614;28;20057;-73
2022/10/05 10:27:03;;;;;;;5.53;3.00;;;17.80;99.90;;;;;;5004810;28;20050;-73
2022/10/05 10:29:55;;;;;;;4.85;2.85;;;17.80;99.90;;;;;;5021629;28;20373;-72
2022/10/05 10:32:24;;;;;;;4.95;2.30;;;17.80;99.90;;;;;;5021691;28;20050;-72
2022/10/05 10:35:19;;;;;;;3.92;2.35;;;17.80;99.90;;;;;;5021106;28;20042;-72
2022/10/05 10:38:07;;;;;;;5.03;2.40;;;17.80;99.90;;;;;;5021453;28;20182;-72
2022/10/05 10:40:57;;;;;;;4.65;2.83;;;17.80;99.90;;;;;;5021287;28;20041;-73
2022/10/05 10:43:35;;;;;;;5.43;2.90;;;17.70;99.90;;;;;;4970601;28;20129;-72
2022/10/05 10:46:34;;;;;;;4.05;2.58;;;17.70;99.90;;;;;;5003987;28;20116;-73
2022/10/05 10:49:17;;;;;;;5.80;2.60;;;17.70;99.90;;;;;;5021216;28;20037;-73
2022/10/05 10:51:46;;;;;;;;;;;17.70;99.90;;;;;;5000923;28;20101;-72
2022/10/05 10:54:57;;;;;;;5.55;3.03;;;17.70;99.90;;;;;;5001754;28;19922;-74
2022/10/05 10:57:41;;;;;;;5.25;3.00;;;17.80;99.90;;;;;;5000824;28;20129;-71
2022/10/05 11:00:06;;;;;;;6.40;3.10;;;17.80;99.90;;;;;;5012152;28;20048;-72
2022/10/05 11:02:41;;;;;;;3.80;2.90;;;17.70;99.90;;;;;;5021142;28;20046;-71
2022/10/05 11:05:46;;;;;;;5.32;3.50;;;17.80;99.90;;;;;;5021062;28;20466;-72
2022/10/05 11:08:36;;;;;;;6.50;3.30;;;17.80;99.90;;;;;;5021605;28;20422;-73
2022/10/05 11:11:36;;;;;;;5.38;3.40;;;17.90;99.90;;;;;;5021291;28;20041;-73
2022/10/05 11:14:23;;;;;;;5.53;2.90;;;17.90;99.90;;;;;;5021013;28;20045;-73
2022/10/05 11:17:34;;;;;;;5.65;3.00;;;17.80;99.90;;;;;;5000190;28;20117;-72
2022/10/05 11:20:37;;;;;;;4.75;3.58;;;17.80;99.90;;;;;;4997159;28;20085;-72
2022/10/05 11:23:40;;;;;;;5.85;2.80;;;17.80;99.90;;;;;;4998205;28;20038;-74
2022/10/05 11:26:57;;;;;;;6.90;3.00;;;17.80;99.90;;;;;;4998595;28;20046;-72
2022/10/05 11:29:28;;;;;;;6.57;4.10;;;17.80;99.90;;;;;;4984668;28;20419;-70
2022/10/05 11:32:06;;;;;;;4.10;2.88;;;17.80;99.90;;;;;;5017890;28;20116;-70
2022/10/05 11:34:37;;;;;;;3.95;2.80;;;17.80;99.90;;;;;;4980643;28;20054;-72
2022/10/05 11:37:06;;;;;;;5.38;2.85;;;17.90;99.90;;;;;;4997813;28;20098;-71
2022/10/05 11:40:09;;;;;;;12.25;2.70;;;17.80;99.90;;;;;;4998249;28;20057;-70
2022/10/05 11:42:52;;;;;;;4.00;3.23;;;17.80;99.90;;;;;;4980446;28;20059;-70
2022/10/05 11:45:23;;;;;;;4.75;3.00;;;17.80;99.90;;;;;;4998006;28;20050;-70
2022/10/05 11:48:15;;;;;;;4.95;3.30;;;17.80;99.90;;;;;;5005866;28;20401;-72
2022/10/05 11:50:55;;;;;;;5.43;3.00;;;17.80;99.90;;;;;;4997790;28;20057;-74
2022/10/05 11:53:30;;;;;;;6.20;3.20;;;17.90;99.90;;;;;;4997607;28;20085;-73
2022/10/05 11:56:23;;;;;;;5.85;3.60;;;17.90;99.90;;;;;;4980429;28;20046;-72
2022/10/05 11:59:04;;;;;;;6.25;3.25;;;17.80;99.90;;;;;;4997818;28;20058;-74
2022/10/05 12:01:56;;;;;;;7.00;4.07;;;17.80;99.90;;;;;;4997743;28;20101;-74
2022/10/05 12:04:28;;;;;;;8.10;3.78;;;17.80;99.90;;;;;;4997813;28;20046;-74
2022/10/05 12:07:22;;;;;;;4.57;3.65;;;17.70;99.90;;;;;;4997410;28;20050;-74
2022/10/05 12:10:16;;;;;;;4.88;3.60;;;17.60;99.90;;;;;;4997570;28;20050;-73
2022/10/05 12:13:03;;;;;;;6.43;4.03;;;17.70;99.90;;;;;;4997432;28;20050;-72
2022/10/05 12:15:52;;;;;;;6.03;3.45;;;17.60;99.90;;;;;;5011685;28;20068;-72
2022/10/05 12:18:22;;;;;;;4.95;3.60;;;17.60;99.90;;;;;;5016486;28;20042;-72
2022/10/05 12:20:57;;;;;;;5.60;3.50;;;17.60;99.90;;;;;;5016747;28;20437;-73
2022/10/05 12:23:38;;;;;;;4.30;3.47;;;17.70;99.90;;;;;;5016739;28;20103;-73
2022/10/05 12:26:30;;;;;;;5.22;3.58;;;17.70;99.90;;;;;;5016909;28;20053;-73
2022/10/05 12:29:05;;;;;;;8.50;3.50;;;17.70;99.90;;;;;;5016013;28;20034;-73
2022/10/05 12:31:53;;;;;;;7.03;3.25;;;17.70;99.90;;;;;;5016101;28;20050;-71
2022/10/05 12:34:23;;;;;;;7.32;3.53;;;17.60;99.90;;;;;;5016423;28;20046;-70
2022/10/05 12:36:48;;;;;;;4.35;2.72;;;17.60;99.90;;;;;;5016387;28;20046;-71
2022/10/05 12:39:38;;;;;;;3.88;2.65;;;17.60;99.90;;;;;;5016573;28;20060;-70
2022/10/05 12:42:24;;;;;;;4.65;2.65;;;17.60;99.90;;;;;;5016202;28;20054;-71
2022/10/05 12:45:18;;;;;;;5.90;2.88;;;17.70;99.90;;;;;;5016224;28;20451;-71
2022/10/05 12:48:22;;;;;;;6.00;3.00;;;17.70;99.90;;;;;;4995460;28;20049;-71
2022/10/05 12:50:50;;;;;;;5.72;2.88;;;17.60;99.90;;;;;;5013119;28;20089;-70
2022/10/05 12:53:27;;;;;;;4.72;3.38;;;17.60;99.90;;;;;;5016310;28;20358;-71
2022/10/05 12:56:18;;;;;;;5.63;2.83;;;17.70;99.90;;;;;;5016158;28;20187;-70
2022/10/05 12:59:03;;;;;;;4.00;2.72;;;17.70;99.90;;;;;;5016390;28;20057;-71
2022/10/05 13:01:46;;;;;;;5.57;2.70;;;17.70;99.90;;;;;;5015964;28;20114;-71
2022/10/05 13:04:27;;;;;;;;;;;17.80;99.90;;;;;;5015957;28;20046;-71
2022/10/05 13:07:17;;;;;;;7.15;2.42;;;17.70;99.90;;;;;;4998483;28;19921;-71
2022/10/05 13:10:09;;;;;;;5.63;2.95;;;17.70;99.90;;;;;;5016186;28;20375;-71
2022/10/05 13:13:02;;;;;;;5.68;2.90;;;17.70;99.90;;;;;;5002735;28;20062;-71
2022/10/05 13:15:30;;;;;;;6.68;2.90;;;17.70;99.90;;;;;;5015204;28;20105;-71
2022/10/05 13:17:59;;;;;;;4.68;2.80;;;17.70;99.90;;;;;;4994785;28;20061;-71
2022/10/05 13:21:02;;;;;;;6.72;3.13;;;17.60;99.90;;;;;;5014893;28;20050;-71
2022/10/05 13:23:34;;;;;;;4.60;2.90;;;17.70;99.90;;;;;;5015501;28;20058;-71
2022/10/05 13:26:09;;;;;;;4.20;2.80;;;17.80;99.90;;;;;;5015363;28;20092;-71
2022/10/05 13:28:46;;;;;;;5.32;3.58;;;17.90;99.90;;;;;;5015556;28;20046;-71
2022/10/05 13:31:22;;;;;;;8.23;3.20;;;18.00;99.90;;;;;;5015637;28;20042;-70
2022/10/05 13:33:54;;;;;;;5.45;3.03;;;18.00;99.90;;;;;;5015276;28;20104;-70
2022/10/05 13:36:19;;;;;;;8.18;3.55;;;18.20;99.90;;;;;;4998259;28;20487;-70
2022/10/05 13:39:02;;;;;;;5.18;3.00;;;18.20;99.90;;;;;;5015303;28;20100;-71
2022/10/05 13:41:27;;;;;;;6.85;3.80;;;18.30;99.90;;;;;;5014689;28;20062;-71
2022/10/05 13:44:17;;;;;;;6.38;3.78;;;18.20;99.90;;;;;;5015582;28;20076;-71
2022/10/05 13:47:17;;;;;;;5.90;3.90;;;18.30;99.90;;;;;;5015256;28;20532;-71
2022/10/05 13:50:17;;;;;;;5.05;3.40;;;18.30;99.90;;;;;;5015521;28;20041;-72
2022/10/05 13:52:55;;;;;;;7.47;3.10;;;18.30;99.90;;;;;;4963321;28;20061;-73
2022/10/05 13:55:58;;;;;;;6.35;3.30;;;18.40;99.90;;;;;;5015135;28;20124;-72
2022/10/05 13:58:46;;;;;;;6.82;3.55;;;18.30;99.90;;;;;;5014759;28;20125;-72
2022/10/05 14:01:18;;;;;;;6.85;3.85;;;18.40;99.90;;;;;;5014755;28;20054;-70
2022/10/05 14:04:02;;;;;;;8.55;3.70;;;18.40;99.90;;;;;;5015458;28;20086;-71
2022/10/05 14:06:30;;;;;;;6.95;3.50;;;18.30;99.90;;;;;;4998111;28;20076;-72